Time;durP1;ratioP1;P1;durP2;ratioP2;P2;SDS_P1;SDS_P2;PMS_P1;PMS_P2;Temp;Humidity;BMP_temperature;BMP_pressure;BME280_temperature;BME280_humidity;BME280_pressure;Samples;Min_cycle;Max_cycle;Signal;HPM_P1;HPM_P2
2022/08/12 00:43:46;;;;;;;2.60;2.40;;;30.50;58.80;;;;;;5104069;28;20461;-65
2022/08/12 00:46:35;;;;;;;3.00;2.70;;;30.50;59.40;;;;;;5104909;28;20461;-65
2022/08/12 00:49:07;;;;;;;2.97;2.60;;;30.60;59.10;;;;;;5112165;28;20498;-65
2022/08/12 00:54:30;;;;;;;3.13;2.83;;;30.50;58.40;;;;;;5102515;28;20458;-64
2022/08/12 00:57:05;;;;;;;2.97;2.67;;;30.30;58.70;;;;;;5102970;28;20541;-64
2022/08/12 00:59:36;;;;;;;3.10;2.80;;;30.30;58.80;;;;;;5112235;28;20459;-65
2022/08/12 01:02:07;;;;;;;3.27;2.97;;;30.20;59.80;;;;;;5102791;28;20444;-65
2022/08/12 01:13:10;;;;;;;2.90;2.70;;;30.00;59.90;;;;;;5123308;28;20479;-66
2022/08/12 01:15:51;;;;;;;2.80;2.60;;;30.00;59.70;;;;;;5123879;27;20455;-66
2022/08/12 01:18:23;;;;;;;2.70;2.50;;;29.90;60.40;;;;;;5126699;28;20488;-67
2022/08/12 01:21:07;;;;;;;2.47;2.30;;;29.90;59.50;;;;;;5106889;28;20465;-66
2022/08/12 01:23:48;;;;;;;2.90;2.70;;;29.90;58.30;;;;;;5124733;28;20461;-67
2022/08/12 01:26:23;;;;;;;2.80;2.60;;;29.90;59.40;;;;;;5125980;27;20463;-66
2022/08/12 01:28:57;;;;;;;3.03;2.83;;;29.80;60.10;;;;;;5125702;27;20467;-66
2022/08/12 01:31:30;;;;;;;3.27;2.87;;;29.80;60.20;;;;;;5115073;28;20470;-66
2022/08/12 01:34:05;;;;;;;3.53;3.23;;;29.70;60.00;;;;;;5105603;28;20458;-67
2022/08/12 01:36:58;;;;;;;3.00;2.80;;;29.60;60.70;;;;;;5117996;28;20467;-67
2022/08/12 01:39:32;;;;;;;3.23;2.97;;;29.50;61.00;;;;;;5115063;28;20503;-66
2022/08/12 01:42:08;;;;;;;2.70;2.50;;;29.50;60.50;;;;;;5123009;28;22276;-65
2022/08/12 01:44:40;;;;;;;3.10;2.90;;;29.40;62.20;;;;;;5126195;28;20438;-64
2022/08/12 01:47:29;;;;;;;4.50;4.10;;;29.30;62.20;;;;;;5115178;28;20470;-66
2022/08/12 01:50:09;;;;;;;3.47;3.17;;;29.30;64.10;;;;;;5106038;28;20473;-65
2022/08/12 01:52:56;;;;;;;2.73;2.53;;;29.20;60.70;;;;;;5123706;28;20457;-64
2022/08/12 01:55:31;;;;;;;2.83;2.63;;;29.20;61.40;;;;;;5123997;28;20452;-64
2022/08/12 01:58:23;;;;;;;2.90;2.70;;;29.20;62.40;;;;;;5105247;28;20483;-63
2022/08/12 02:00:59;;;;;;;3.30;2.73;;;29.20;61.90;;;;;;5118391;27;20586;-63
2022/08/12 02:13:14;;;;;;;3.17;2.87;;;28.70;64.60;;;;;;5109900;28;20461;-64
2022/08/12 02:16:14;;;;;;;2.67;2.47;;;28.60;65.70;;;;;;5110555;28;20473;-63
2022/08/12 02:18:57;;;;;;;3.00;2.77;;;28.50;65.70;;;;;;5122970;28;21006;-64
2022/08/12 02:21:39;;;;;;;2.70;2.50;;;28.40;65.70;;;;;;5124067;28;20935;-64
2022/08/12 02:24:12;;;;;;;3.33;3.00;;;28.30;66.50;;;;;;5125652;28;20450;-63
2022/08/12 02:26:47;;;;;;;2.93;2.73;;;28.20;67.70;;;;;;5122943;28;20430;-64
2022/08/12 02:29:20;;;;;;;3.07;2.77;;;28.20;67.30;;;;;;5111175;28;20584;-63
2022/08/12 02:31:51;;;;;;;3.23;2.93;;;28.00;68.00;;;;;;5127011;27;20463;-64
2022/08/12 02:34:24;;;;;;;2.97;2.67;;;27.90;69.70;;;;;;5127079;27;20451;-64
2022/08/12 02:36:55;;;;;;;2.90;2.70;;;27.80;70.00;;;;;;5114968;27;20518;-64
2022/08/12 02:39:33;;;;;;;2.50;2.30;;;27.80;69.40;;;;;;5115620;28;20584;-66
2022/08/12 02:42:08;;;;;;;2.57;2.37;;;27.70;67.80;;;;;;5114512;28;20445;-64
2022/08/12 02:44:42;;;;;;;3.23;2.93;;;27.60;69.60;;;;;;5124493;28;20448;-65
2022/08/12 02:47:16;;;;;;;2.87;2.67;;;27.50;68.90;;;;;;5107918;28;20463;-65
2022/08/12 02:50:10;;;;;;;2.73;2.47;;;27.50;68.80;;;;;;5114424;28;20469;-65
2022/08/12 02:52:42;;;;;;;2.37;2.17;;;27.40;70.00;;;;;;5115491;28;20464;-65
2022/08/12 02:55:18;;;;;;;2.60;2.40;;;27.20;70.60;;;;;;5105536;28;20829;-65
2022/08/12 02:58:08;;;;;;;2.80;2.60;;;27.10;71.00;;;;;;5104130;28;20451;-65
2022/08/12 03:00:45;;;;;;;2.63;2.40;;;27.00;72.00;;;;;;5112027;27;20508;-65
2022/08/12 03:03:19;;;;;;;2.57;2.37;;;26.90;70.10;;;;;;5104584;28;20603;-64
2022/08/12 03:05:58;;;;;;;2.70;2.50;;;27.00;69.80;;;;;;5137820;27;20812;-64
2022/08/12 03:08:32;;;;;;;2.57;2.37;;;27.00;70.90;;;;;;5118445;27;20463;-64
2022/08/12 03:11:11;;;;;;;3.30;3.00;;;27.00;71.80;;;;;;5103148;28;20487;-64
2022/08/12 03:13:48;;;;;;;2.80;2.40;;;26.90;72.20;;;;;;5107043;27;20511;-64
2022/08/12 03:16:22;;;;;;;2.60;2.40;;;26.80;68.30;;;;;;5109976;27;20461;-64
2022/08/12 03:18:53;;;;;;;3.67;3.17;;;26.80;72.20;;;;;;5118981;27;20496;-63
2022/08/12 03:21:25;;;;;;;3.10;2.80;;;26.70;72.60;;;;;;5128295;27;20448;-63
2022/08/12 03:24:18;;;;;;;3.00;2.70;;;26.50;70.50;;;;;;5120884;27;20519;-64
2022/08/12 03:26:52;;;;;;;3.00;2.80;;;26.40;70.90;;;;;;5103780;28;20475;-63
2022/08/12 03:29:34;;;;;;;3.03;2.47;;;26.20;73.10;;;;;;5103654;28;20457;-64
2022/08/12 03:32:22;;;;;;;3.97;2.73;;;26.20;71.90;;;;;;5105757;28;20581;-63
2022/08/12 03:35:06;;;;;;;2.73;2.53;;;26.00;73.60;;;;;;5102828;28;20459;-64
2022/08/12 03:37:59;;;;;;;2.77;2.53;;;26.00;75.50;;;;;;5113777;28;20526;-64
2022/08/12 04:00:27;;;;;;;2.33;2.13;;;25.50;83.70;;;;;;5117889;28;20495;-63
2022/08/12 04:03:00;;;;;;;2.60;2.10;;;25.40;85.50;;;;;;5102118;28;20492;-64
2022/08/12 04:05:33;;;;;;;2.10;1.87;;;25.20;86.10;;;;;;5110114;28;20464;-63
2022/08/12 04:08:26;;;;;;;2.10;1.80;;;25.10;87.70;;;;;;5123175;28;20508;-63
2022/08/12 04:13:45;;;;;;;2.03;1.90;;;24.90;89.50;;;;;;5114397;28;20925;-63
2022/08/12 04:16:17;;;;;;;2.53;2.33;;;24.80;90.20;;;;;;5110960;28;20467;-63
2022/08/12 04:18:48;;;;;;;2.43;2.00;;;24.80;90.30;;;;;;5118022;28;20502;-63
2022/08/12 04:21:20;;;;;;;2.27;2.17;;;24.70;91.00;;;;;;5106532;28;20471;-63
2022/08/12 04:23:52;;;;;;;2.00;1.80;;;24.60;91.30;;;;;;5107013;28;20589;-63
2022/08/12 04:26:23;;;;;;;2.00;1.90;;;24.50;91.30;;;;;;5102294;28;20459;-64
2022/08/12 04:28:57;;;;;;;1.87;1.73;;;24.40;91.60;;;;;;5103099;28;20902;-63
2022/08/12 04:31:34;;;;;;;2.50;2.07;;;24.40;91.60;;;;;;5109013;27;20463;-63
2022/08/12 04:34:06;;;;;;;2.50;2.30;;;24.40;91.80;;;;;;5128592;28;20456;-62
2022/08/12 04:36:39;;;;;;;2.03;1.70;;;24.20;92.50;;;;;;5123665;27;20476;-62
2022/08/12 04:39:12;;;;;;;1.93;1.73;;;24.10;92.80;;;;;;5123820;27;20491;-64
2022/08/12 04:41:43;;;;;;;1.93;1.80;;;24.20;93.10;;;;;;5127090;27;20466;-63
2022/08/12 04:44:27;;;;;;;2.37;2.17;;;24.20;92.90;;;;;;5118354;27;20474;-63
2022/08/12 04:46:58;;;;;;;3.40;2.03;;;24.10;93.10;;;;;;5120091;27;20461;-64
2022/08/12 04:49:30;;;;;;;1.80;1.70;;;24.00;93.70;;;;;;5116440;27;20539;-64
2022/08/12 04:52:04;;;;;;;2.13;2.03;;;23.90;93.40;;;;;;5113207;27;20465;-64
2022/08/12 04:54:37;;;;;;;1.83;1.73;;;23.90;93.40;;;;;;5124370;27;20492;-64
2022/08/12 04:57:08;;;;;;;2.00;1.90;;;23.90;93.40;;;;;;5123980;28;20456;-64
2022/08/12 04:59:39;;;;;;;1.93;1.83;;;23.80;93.60;;;;;;5105803;28;20500;-64
2022/08/12 05:02:18;;;;;;;1.87;1.77;;;23.70;94.00;;;;;;5111871;28;20497;-64
2022/08/12 05:04:55;;;;;;;1.70;1.60;;;23.60;94.10;;;;;;5122276;27;20457;-63
2022/08/12 05:07:32;;;;;;;2.37;2.17;;;23.50;94.30;;;;;;5136135;27;20502;-63
2022/08/12 05:10:14;;;;;;;1.87;1.70;;;23.40;94.60;;;;;;5122197;27;20509;-64
2022/08/12 05:12:49;;;;;;;3.00;1.83;;;23.40;95.00;;;;;;5126147;27;20477;-63
2022/08/12 05:15:20;;;;;;;1.77;1.67;;;23.30;95.00;;;;;;5128243;27;20464;-64
2022/08/12 05:17:58;;;;;;;2.07;1.97;;;23.20;95.20;;;;;;5145838;27;20894;-63
2022/08/12 05:20:48;;;;;;;2.20;2.00;;;23.10;95.80;;;;;;5140502;27;21003;-63
2022/08/12 05:23:22;;;;;;;2.00;1.90;;;22.90;96.20;;;;;;5121248;27;20454;-63
2022/08/12 05:25:55;;;;;;;1.83;1.70;;;22.90;96.80;;;;;;5141425;27;20476;-64
2022/08/12 05:28:27;;;;;;;2.27;2.10;;;22.80;97.70;;;;;;5125710;27;20453;-63
2022/08/12 05:31:00;;;;;;;2.60;2.07;;;22.70;97.50;;;;;;5122824;27;20465;-63
2022/08/12 05:33:36;;;;;;;2.23;2.07;;;22.70;97.70;;;;;;5121121;27;20456;-63
2022/08/12 05:36:11;;;;;;;2.60;2.10;;;22.60;98.50;;;;;;5127142;27;20457;-64
2022/08/12 05:38:56;;;;;;;2.47;2.00;;;22.50;98.80;;;;;;5126196;27;20517;-64
2022/08/12 05:41:30;;;;;;;3.00;2.17;;;22.50;99.30;;;;;;5120643;27;20492;-64
2022/08/12 05:44:02;;;;;;;2.60;2.40;;;22.40;99.60;;;;;;5131854;27;20509;-63
2022/08/12 05:46:33;;;;;;;2.00;1.73;;;22.30;98.80;;;;;;5131131;27;20532;-64
2022/08/12 05:49:05;;;;;;;2.20;2.00;;;22.30;98.40;;;;;;5143504;27;20554;-64
2022/08/12 05:51:37;;;;;;;1.60;1.50;;;22.30;98.90;;;;;;5144538;27;20456;-64
2022/08/12 05:54:12;;;;;;;1.53;1.43;;;22.20;99.40;;;;;;5137478;27;20442;-63
2022/08/12 05:56:44;;;;;;;1.80;1.70;;;22.10;99.90;;;;;;5122373;27;20534;-64
2022/08/12 05:59:15;;;;;;;2.10;1.63;;;22.10;99.90;;;;;;5124160;27;20468;-63
2022/08/12 06:01:46;;;;;;;2.10;1.90;;;22.10;99.90;;;;;;5133635;27;20457;-63
2022/08/12 06:04:37;;;;;;;2.30;2.10;;;22.00;99.90;;;;;;5134819;27;20449;-64
2022/08/12 06:07:11;;;;;;;2.20;2.00;;;21.90;99.90;;;;;;5126952;27;20468;-64
2022/08/12 06:10:03;;;;;;;2.00;1.80;;;21.80;99.90;;;;;;5110266;27;20544;-63
2022/08/12 06:12:34;;;;;;;3.53;2.50;;;21.80;99.90;;;;;;5123955;28;20446;-65
2022/08/12 06:15:05;;;;;;;2.47;2.20;;;21.80;99.90;;;;;;5119568;27;20508;-63
2022/08/12 06:17:36;;;;;;;2.00;1.87;;;21.70;99.90;;;;;;5113735;27;20461;-63
2022/08/12 06:20:12;;;;;;;1.87;1.77;;;21.70;99.90;;;;;;5129460;27;20507;-65
2022/08/12 06:22:58;;;;;;;4.70;2.10;;;21.60;99.90;;;;;;5144114;27;20459;-63
2022/08/12 06:25:33;;;;;;;2.40;2.20;;;21.40;99.90;;;;;;5115924;27;20463;-65
2022/08/12 06:28:04;;;;;;;1.93;1.70;;;21.30;99.90;;;;;;5120263;27;20461;-65
2022/08/12 06:30:39;;;;;;;1.73;1.63;;;21.20;99.90;;;;;;5118671;27;21231;-65
2022/08/12 06:33:10;;;;;;;2.00;1.80;;;21.10;99.90;;;;;;5120700;27;20471;-65
2022/08/12 06:35:52;;;;;;;2.27;2.07;;;21.10;99.90;;;;;;5112465;27;20462;-64
2022/08/12 06:38:29;;;;;;;2.17;1.97;;;21.10;99.90;;;;;;5116498;27;20503;-65
2022/08/12 06:43:50;;;;;;;2.37;2.17;;;21.00;99.90;;;;;;5074831;27;20473;-64
2022/08/12 06:46:38;;;;;;;1.83;1.73;;;21.00;99.90;;;;;;5120533;28;20909;-65
2022/08/12 06:49:12;;;;;;;2.47;2.23;;;20.90;99.90;;;;;;5121671;27;20437;-65
2022/08/12 06:51:42;;;;;;;1.70;1.60;;;20.90;99.90;;;;;;5116630;27;20953;-62
2022/08/12 06:54:25;;;;;;;2.17;1.73;;;20.90;99.90;;;;;;5108596;28;20517;-65
2022/08/12 06:57:02;;;;;;;1.93;1.83;;;20.80;99.90;;;;;;5127652;27;21020;-65
2022/08/12 06:59:53;;;;;;;2.20;1.90;;;20.70;99.90;;;;;;5125426;27;20460;-64
2022/08/12 07:02:24;;;;;;;2.27;1.83;;;20.60;99.90;;;;;;5110891;27;20508;-64
2022/08/12 07:04:55;;;;;;;2.20;1.90;;;20.60;99.90;;;;;;5111101;28;20493;-65
2022/08/12 07:07:26;;;;;;;1.67;1.57;;;20.60;99.90;;;;;;5118023;27;20449;-66
2022/08/12 07:09:57;;;;;;;1.83;1.73;;;20.50;99.90;;;;;;5123858;27;20453;-65
2022/08/12 07:12:38;;;;;;;2.00;1.90;;;20.50;99.90;;;;;;5115023;27;20651;-63
2022/08/12 07:15:11;;;;;;;2.03;1.83;;;20.50;99.90;;;;;;5122053;27;20505;-65
2022/08/12 07:17:43;;;;;;;1.53;1.43;;;20.40;99.90;;;;;;5127246;27;20462;-65
2022/08/12 07:20:16;;;;;;;2.10;1.90;;;20.40;99.90;;;;;;5120519;27;20487;-65
2022/08/12 07:23:07;;;;;;;2.10;1.77;;;20.30;99.90;;;;;;5119974;27;20457;-65
2022/08/12 07:25:38;;;;;;;2.93;1.77;;;20.20;99.90;;;;;;5112056;28;20451;-65
2022/08/12 07:28:17;;;;;;;2.20;1.90;;;20.20;99.90;;;;;;5121712;27;20453;-64
2022/08/12 07:30:49;;;;;;;1.73;1.63;;;20.20;99.90;;;;;;5107855;27;20573;-64
2022/08/12 07:33:22;;;;;;;2.37;1.93;;;20.10;99.90;;;;;;5114740;28;21046;-64
2022/08/12 07:35:53;;;;;;;2.03;1.50;;;20.00;99.90;;;;;;5114005;27;20460;-65
2022/08/12 07:38:29;;;;;;;2.20;2.00;;;20.00;99.90;;;;;;5112228;27;20552;-64
2022/08/12 07:41:04;;;;;;;2.00;1.90;;;20.00;99.90;;;;;;5113329;27;20500;-65
2022/08/12 07:43:38;;;;;;;3.00;2.10;;;19.90;99.90;;;;;;5109377;27;20846;-65
2022/08/12 07:46:13;;;;;;;2.53;1.97;;;19.90;99.90;;;;;;5118620;27;20434;-64
2022/08/12 07:48:47;;;;;;;2.23;2.03;;;19.90;99.90;;;;;;5113370;27;20463;-64
2022/08/12 07:51:19;;;;;;;1.77;1.67;;;19.80;99.90;;;;;;5113519;27;20461;-64
2022/08/12 07:53:56;;;;;;;2.90;1.70;;;19.80;99.90;;;;;;5115015;27;20458;-64
2022/08/12 07:56:30;;;;;;;2.17;1.80;;;19.70;99.90;;;;;;5110697;28;20795;-64
2022/08/12 07:59:04;;;;;;;2.00;1.80;;;19.70;99.90;;;;;;5113057;27;20511;-65
2022/08/12 08:01:36;;;;;;;2.13;1.93;;;19.70;99.90;;;;;;5119337;27;20448;-63
2022/08/12 08:06:57;;;;;;;2.30;2.10;;;19.60;99.90;;;;;;5121144;27;20465;-64
2022/08/12 08:09:27;;;;;;;1.87;1.77;;;19.50;99.90;;;;;;5116802;28;20483;-64
2022/08/12 08:14:50;;;;;;;2.30;1.90;;;19.50;99.90;;;;;;5132111;27;20487;-64
2022/08/12 08:17:21;;;;;;;2.30;2.10;;;19.50;99.90;;;;;;5112021;28;20453;-66
2022/08/12 08:19:54;;;;;;;2.40;2.00;;;19.40;99.90;;;;;;5103095;28;21279;-64
2022/08/12 08:22:37;;;;;;;2.13;1.93;;;19.40;99.90;;;;;;5109694;28;20496;-64
2022/08/12 08:25:12;;;;;;;2.00;1.90;;;19.30;99.90;;;;;;5132030;28;20439;-64
2022/08/12 08:28:05;;;;;;;1.80;1.70;;;19.30;99.90;;;;;;5120149;28;20424;-64
2022/08/12 08:30:41;;;;;;;2.17;2.00;;;19.20;99.90;;;;;;5124835;28;20436;-64
2022/08/12 08:33:13;;;;;;;1.63;1.53;;;19.20;99.90;;;;;;5127556;28;20497;-64
2022/08/12 08:36:05;;;;;;;2.70;2.00;;;19.20;99.90;;;;;;5108528;28;20475;-64
2022/08/12 08:38:53;;;;;;;2.40;1.80;;;19.00;99.90;;;;;;5118602;27;20585;-63
2022/08/12 08:44:36;;;;;;;1.63;1.53;;;18.90;99.90;;;;;;5102687;28;20482;-64
2022/08/12 08:47:11;;;;;;;1.60;1.40;;;18.90;99.90;;;;;;5113963;28;20465;-64
2022/08/12 08:49:42;;;;;;;2.40;2.20;;;18.90;99.90;;;;;;5118756;28;20548;-64
2022/08/12 08:52:13;;;;;;;1.70;1.50;;;18.80;99.90;;;;;;5131340;28;20444;-63
2022/08/12 08:55:03;;;;;;;1.93;1.70;;;18.80;99.90;;;;;;5120372;28;20463;-64
2022/08/12 08:57:34;;;;;;;1.90;1.80;;;18.70;99.90;;;;;;5125507;28;20458;-62
2022/08/12 09:00:17;;;;;;;1.70;1.60;;;18.70;99.90;;;;;;5108020;28;20461;-64
2022/08/12 09:02:50;;;;;;;1.90;1.73;;;18.70;99.90;;;;;;5120802;28;20974;-64
2022/08/12 09:05:28;;;;;;;4.00;2.00;;;18.70;99.90;;;;;;5128181;28;20449;-64
2022/08/12 09:08:19;;;;;;;2.10;1.80;;;18.70;99.90;;;;;;5125762;28;20501;-64
2022/08/12 09:10:57;;;;;;;2.47;1.70;;;18.70;99.90;;;;;;5116297;27;20507;-64
2022/08/12 09:13:27;;;;;;;1.97;1.87;;;18.60;99.90;;;;;;5124309;28;20839;-64
2022/08/12 09:16:18;;;;;;;1.83;1.43;;;18.60;99.90;;;;;;5121311;28;20520;-64
2022/08/12 09:18:51;;;;;;;3.03;1.63;;;18.60;99.90;;;;;;5117073;28;20466;-64
2022/08/12 09:21:22;;;;;;;1.67;1.50;;;18.50;99.90;;;;;;5116588;28;20451;-64
2022/08/12 09:23:57;;;;;;;2.10;1.90;;;18.50;99.90;;;;;;5142065;27;20452;-64
2022/08/12 09:26:37;;;;;;;2.70;1.87;;;18.50;99.90;;;;;;5130101;27;20439;-64
2022/08/12 09:29:17;;;;;;;2.13;1.93;;;18.50;99.90;;;;;;5121371;27;20472;-64
2022/08/12 09:31:49;;;;;;;1.67;1.50;;;18.40;99.90;;;;;;5127899;27;20927;-63
2022/08/12 09:34:39;;;;;;;2.03;1.70;;;18.40;99.90;;;;;;5119564;28;20914;-64
2022/08/12 09:37:12;;;;;;;1.80;1.70;;;18.40;99.90;;;;;;5122468;27;20442;-64
2022/08/12 09:39:49;;;;;;;2.53;1.80;;;18.30;99.90;;;;;;5119868;27;20458;-64
2022/08/12 09:45:47;;;;;;;3.80;2.07;;;18.20;99.90;;;;;;5109715;27;20464;-64
2022/08/12 09:48:38;;;;;;;2.60;1.37;;;18.20;99.90;;;;;;5133235;27;20529;-64
2022/08/12 09:51:26;;;;;;;1.70;1.57;;;18.20;99.90;;;;;;5113306;27;20461;-63
2022/08/12 09:54:12;;;;;;;2.33;1.90;;;18.20;99.90;;;;;;5119186;27;20456;-64
2022/08/12 09:57:08;;;;;;;1.50;1.40;;;18.10;99.90;;;;;;5121283;27;20463;-64
2022/08/12 09:59:59;;;;;;;1.57;1.37;;;18.00;99.90;;;;;;5117218;27;20510;-64
2022/08/12 10:03:02;;;;;;;2.50;2.20;;;17.90;99.90;;;;;;5130257;27;20503;-64
2022/08/12 10:05:36;;;;;;;2.13;1.67;;;17.90;99.90;;;;;;5125980;27;20457;-64
2022/08/12 10:08:30;;;;;;;1.40;1.30;;;17.90;99.90;;;;;;5116005;27;20561;-64
2022/08/12 10:13:51;;;;;;;2.10;1.77;;;17.80;99.90;;;;;;5120277;27;20462;-64
2022/08/12 10:16:27;;;;;;;2.03;1.83;;;17.80;99.90;;;;;;5121098;27;20436;-64
2022/08/12 10:19:04;;;;;;;1.80;1.70;;;17.80;99.90;;;;;;5129953;27;20457;-64
2022/08/12 10:21:46;;;;;;;2.10;1.60;;;17.90;99.90;;;;;;5111900;27;20478;-64
2022/08/12 10:24:27;;;;;;;1.73;1.63;;;17.80;99.90;;;;;;5108418;27;20574;-64
2022/08/12 10:30:18;;;;;;;2.00;1.80;;;17.70;99.90;;;;;;5040920;28;20960;-64
2022/08/12 10:33:09;;;;;;;1.40;1.30;;;17.70;99.90;;;;;;5041260;28;20428;-64
2022/08/12 10:35:48;;;;;;;2.90;2.27;;;17.70;99.90;;;;;;5042807;28;20454;-64
2022/08/12 10:38:21;;;;;;;2.17;1.90;;;17.60;99.90;;;;;;5040455;28;20467;-64
2022/08/12 10:44:19;;;;;;;1.83;1.70;;;17.60;99.90;;;;;;5041365;28;20507;-64
2022/08/12 10:46:54;;;;;;;3.43;2.37;;;17.50;99.90;;;;;;5044118;28;20469;-64
2022/08/12 10:49:27;;;;;;;2.10;1.67;;;17.50;99.90;;;;;;5058547;28;20448;-64
2022/08/12 10:52:18;;;;;;;1.97;1.80;;;17.50;99.90;;;;;;5039969;28;20534;-64
2022/08/12 10:55:02;;;;;;;2.57;1.47;;;17.50;99.90;;;;;;5048019;28;20464;-64
2022/08/12 10:57:44;;;;;;;1.77;1.60;;;17.40;99.90;;;;;;5049014;28;20469;-64
2022/08/12 11:00:37;;;;;;;1.53;1.43;;;17.40;99.90;;;;;;5052992;28;20432;-64
2022/08/12 11:03:27;;;;;;;1.60;1.50;;;17.30;99.90;;;;;;5060616;28;20465;-64
2022/08/12 11:06:20;;;;;;;1.83;1.73;;;17.30;99.90;;;;;;5105994;28;20582;-64
2022/08/12 11:09:11;;;;;;;1.93;1.60;;;17.30;99.90;;;;;;5117952;27;20424;-64
2022/08/12 11:11:47;;;;;;;2.70;2.17;;;17.30;99.90;;;;;;5121332;27;20476;-64
2022/08/12 11:14:41;;;;;;;1.87;1.77;;;17.20;99.90;;;;;;5113667;27;20440;-64
2022/08/12 11:17:20;;;;;;;2.13;2.00;;;17.20;99.90;;;;;;5118970;27;20457;-63
2022/08/12 11:20:11;;;;;;;2.47;2.27;;;17.10;99.90;;;;;;5108541;27;20457;-64
2022/08/12 11:22:55;;;;;;;2.97;2.10;;;17.10;99.90;;;;;;5119624;27;20540;-63
2022/08/12 11:25:28;;;;;;;2.50;2.27;;;17.10;99.90;;;;;;5121100;27;20427;-63
2022/08/12 11:28:19;;;;;;;3.03;1.80;;;17.10;99.90;;;;;;5124497;27;20461;-64
2022/08/12 11:31:09;;;;;;;2.30;2.00;;;17.10;99.90;;;;;;5102209;27;20534;-63
2022/08/12 11:33:43;;;;;;;4.20;2.90;;;17.00;99.90;;;;;;5120526;27;20469;-64
2022/08/12 11:36:34;;;;;;;1.90;1.70;;;17.00;99.90;;;;;;5111518;27;20575;-64
2022/08/12 11:39:09;;;;;;;2.57;2.20;;;17.00;99.90;;;;;;5118609;27;20432;-64
2022/08/12 11:41:41;;;;;;;2.13;1.90;;;17.00;99.90;;;;;;5112725;27;20441;-64
2022/08/12 11:44:15;;;;;;;3.90;1.97;;;16.90;99.90;;;;;;5114436;28;20492;-64
2022/08/12 11:47:07;;;;;;;2.40;2.20;;;16.90;99.90;;;;;;5107735;27;20444;-64
2022/08/12 11:49:38;;;;;;;1.80;1.70;;;16.80;99.90;;;;;;5108188;27;20429;-64
2022/08/12 11:52:14;;;;;;;2.33;1.80;;;16.90;99.90;;;;;;5114171;28;20525;-64
2022/08/12 11:55:02;;;;;;;2.83;1.80;;;16.80;99.90;;;;;;5122184;27;20454;-64
2022/08/12 11:57:33;;;;;;;2.73;2.20;;;16.70;99.90;;;;;;5115860;28;20445;-64
2022/08/12 12:00:24;;;;;;;2.27;2.10;;;16.80;99.90;;;;;;5127564;27;20472;-64
2022/08/12 12:03:16;;;;;;;2.63;1.90;;;16.90;99.90;;;;;;5107175;28;20536;-64
2022/08/12 12:05:51;;;;;;;3.13;2.77;;;16.80;99.90;;;;;;5116766;27;20442;-63
2022/08/12 12:08:31;;;;;;;2.80;2.07;;;16.70;99.90;;;;;;5102860;28;20441;-64
2022/08/12 12:11:11;;;;;;;2.27;1.90;;;16.70;99.90;;;;;;5120738;27;20467;-64
2022/08/12 12:13:42;;;;;;;2.97;2.13;;;16.70;99.90;;;;;;5135161;27;20491;-64
2022/08/12 12:16:33;;;;;;;2.80;2.23;;;16.70;99.90;;;;;;5106739;28;20517;-64
2022/08/12 12:19:12;;;;;;;2.60;2.30;;;16.70;99.90;;;;;;5118665;27;20467;-64
2022/08/12 12:21:43;;;;;;;2.57;2.37;;;16.60;99.90;;;;;;5111166;27;20447;-63
2022/08/12 12:24:18;;;;;;;2.67;2.47;;;16.60;99.90;;;;;;5115179;28;21275;-64
2022/08/12 12:26:51;;;;;;;2.00;1.80;;;16.60;99.90;;;;;;5114884;28;20482;-63
2022/08/12 12:29:30;;;;;;;4.37;2.10;;;16.50;99.90;;;;;;5116878;28;20424;-63
2022/08/12 12:32:21;;;;;;;2.17;1.97;;;16.40;99.90;;;;;;5117144;27;20465;-63
2022/08/12 12:35:01;;;;;;;3.17;1.40;;;16.40;99.90;;;;;;5112782;28;20448;-64
2022/08/12 12:37:53;;;;;;;2.53;2.20;;;16.40;99.90;;;;;;5129285;28;20499;-63
2022/08/12 12:40:36;;;;;;;2.07;1.87;;;16.30;99.90;;;;;;5119126;27;20490;-63
2022/08/12 12:43:09;;;;;;;2.87;2.10;;;16.30;99.90;;;;;;5107785;28;20481;-63
2022/08/12 12:45:41;;;;;;;1.90;1.80;;;16.30;99.90;;;;;;5115888;28;20443;-64
2022/08/12 12:48:17;;;;;;;2.07;1.60;;;16.30;99.90;;;;;;5108216;28;20513;-63
2022/08/12 12:51:14;;;;;;;1.87;1.60;;;16.30;99.90;;;;;;5116627;28;20915;-63
2022/08/12 12:53:43;;;;;;;7.03;1.67;;;16.20;99.90;;;;;;5111604;28;20545;-63
2022/08/12 12:56:34;;;;;;;1.40;1.30;;;16.20;99.90;;;;;;5127453;28;20481;-63
2022/08/12 12:59:05;;;;;;;2.23;1.40;;;16.20;99.90;;;;;;5108292;27;20605;-63
2022/08/12 13:02:05;;;;;;;1.77;1.67;;;16.20;99.90;;;;;;5114106;27;20445;-64
2022/08/12 13:04:37;;;;;;;1.90;1.70;;;16.20;99.90;;;;;;5115740;28;20489;-64
2022/08/12 13:07:10;;;;;;;2.50;1.83;;;16.20;99.90;;;;;;5105319;28;20582;-63
2022/08/12 13:09:40;;;;;;;1.97;1.83;;;16.20;99.90;;;;;;5132064;27;20454;-64
2022/08/12 13:12:15;;;;;;;1.70;1.60;;;16.20;99.90;;;;;;5121701;28;20902;-63
2022/08/12 13:14:49;;;;;;;2.40;1.80;;;16.20;99.90;;;;;;5124833;27;21495;-63
2022/08/12 13:17:20;;;;;;;1.70;1.60;;;16.20;99.90;;;;;;5108454;27;20795;-63
2022/08/12 13:19:53;;;;;;;2.10;1.90;;;16.20;99.90;;;;;;5121855;27;20514;-64
2022/08/12 13:22:25;;;;;;;2.17;1.83;;;16.10;99.90;;;;;;5109762;27;20564;-64
2022/08/12 13:24:58;;;;;;;1.80;1.50;;;16.10;99.90;;;;;;5115708;27;20496;-64
2022/08/12 13:27:34;;;;;;;2.33;2.00;;;16.10;99.90;;;;;;5108594;27;20457;-63
2022/08/12 13:30:08;;;;;;;1.90;1.70;;;16.00;99.90;;;;;;5123603;27;20444;-63
2022/08/12 13:32:42;;;;;;;2.27;1.87;;;16.10;99.90;;;;;;5115031;28;20427;-63
2022/08/12 13:35:28;;;;;;;1.63;1.53;;;16.20;99.90;;;;;;5124328;27;20566;-64
2022/08/12 13:38:27;;;;;;;2.13;1.93;;;16.10;99.90;;;;;;5116759;27;20471;-64
2022/08/12 13:41:04;;;;;;;2.20;2.00;;;16.10;99.90;;;;;;5132671;27;20456;-64
2022/08/12 13:43:40;;;;;;;2.00;1.50;;;16.20;99.90;;;;;;5128615;27;20504;-64
2022/08/12 13:46:15;;;;;;;2.27;1.97;;;16.20;99.90;;;;;;5125946;28;20400;-65
2022/08/12 13:48:47;;;;;;;1.57;1.40;;;16.30;99.90;;;;;;5121838;28;20563;-64
2022/08/12 13:51:17;;;;;;;1.37;1.27;;;16.30;99.90;;;;;;5112724;27;20458;-64
2022/08/12 13:53:54;;;;;;;1.90;1.80;;;16.30;99.90;;;;;;5117929;28;20435;-64
2022/08/12 13:56:35;;;;;;;1.87;1.67;;;16.40;99.90;;;;;;5125566;28;20485;-64
2022/08/12 13:59:07;;;;;;;1.77;1.67;;;16.50;99.90;;;;;;5106912;28;20486;-64
2022/08/12 14:01:40;;;;;;;1.57;1.47;;;16.50;99.90;;;;;;5122198;28;20476;-63
2022/08/12 14:04:11;;;;;;;1.70;1.53;;;16.50;99.90;;;;;;5111818;28;20481;-63
2022/08/12 14:06:42;;;;;;;4.47;2.30;;;16.60;99.90;;;;;;5118682;27;20490;-63
2022/08/12 14:09:15;;;;;;;2.00;1.80;;;16.60;99.90;;;;;;5127020;27;20449;-63
2022/08/12 14:11:50;;;;;;;1.60;1.50;;;16.70;99.90;;;;;;5125508;27;20483;-63
2022/08/12 14:14:29;;;;;;;2.03;1.83;;;16.80;99.90;;;;;;5121687;28;20851;-63
2022/08/12 14:17:08;;;;;;;2.13;1.93;;;16.80;99.90;;;;;;5142129;27;20920;-63
2022/08/12 14:20:11;;;;;;;2.27;1.90;;;16.90;99.90;;;;;;5119005;27;20829;-64
2022/08/12 14:22:32;;;;;;;1.47;1.37;;;16.90;99.90;;;;;;5111948;28;21134;-63
2022/08/12 14:25:09;;;;;;;2.10;1.90;;;17.00;99.90;;;;;;5112192;27;21094;-63
2022/08/12 14:27:45;;;;;;;1.87;1.70;;;17.10;99.90;;;;;;5123513;27;20516;-64
2022/08/12 14:30:35;;;;;;;2.17;1.57;;;17.10;99.90;;;;;;5117834;27;20499;-63
2022/08/12 14:33:06;;;;;;;2.50;1.97;;;17.20;99.90;;;;;;5129051;27;20461;-62
2022/08/12 14:35:39;;;;;;;2.60;1.80;;;17.30;99.90;;;;;;5126979;27;20424;-63
2022/08/12 14:38:22;;;;;;;1.63;1.53;;;17.40;99.90;;;;;;5128937;27;20461;-62
2022/08/12 14:40:57;;;;;;;1.73;1.63;;;17.60;99.90;;;;;;5144477;27;20432;-64
2022/08/12 14:43:32;;;;;;;1.63;1.53;;;17.70;99.90;;;;;;5111588;27;20480;-63
2022/08/12 14:46:26;;;;;;;1.60;1.33;;;17.70;99.90;;;;;;5129236;27;20449;-62
2022/08/12 14:48:57;;;;;;;1.73;1.63;;;17.90;99.90;;;;;;5115018;27;20531;-63
2022/08/12 14:51:47;;;;;;;1.57;1.43;;;18.00;99.90;;;;;;5107745;28;20430;-63
2022/08/12 14:54:38;;;;;;;2.40;2.20;;;18.40;99.90;;;;;;5105690;28;20515;-62
2022/08/12 14:57:36;;;;;;;2.10;1.90;;;19.50;99.90;;;;;;5130853;27;20556;-62
2022/08/12 15:03:26;;;;;;;1.47;1.30;;;23.10;99.90;;;;;;5120476;27;20481;-63
2022/08/12 15:06:21;;;;;;;1.10;1.00;;;24.50;97.80;;;;;;5119762;27;20455;-70
2022/08/12 15:09:12;;;;;;;1.53;1.43;;;26.10;94.70;;;;;;5120212;27;20539;-66
2022/08/12 15:11:46;;;;;;;1.70;1.40;;;26.60;92.90;;;;;;5132904;27;20494;-64
2022/08/12 15:14:26;;;;;;;1.10;1.00;;;27.30;91.10;;;;;;5119327;27;20458;-67
2022/08/12 15:16:59;;;;;;;1.50;1.40;;;27.80;89.20;;;;;;5106744;27;20463;-67
2022/08/12 15:19:30;;;;;;;2.03;1.90;;;28.40;84.90;;;;;;5120649;27;20460;-67
2022/08/12 15:22:20;;;;;;;1.97;1.80;;;28.60;81.60;;;;;;5131036;27;20489;-66
2022/08/12 15:25:09;;;;;;;1.33;1.23;;;29.10;79.80;;;;;;5143791;27;20486;-68
2022/08/12 15:27:48;;;;;;;1.00;0.90;;;29.20;79.60;;;;;;5109881;27;20474;-67
2022/08/12 15:30:41;;;;;;;1.27;1.23;;;29.80;75.00;;;;;;5120931;27;20453;-67
2022/08/12 15:33:13;;;;;;;1.80;1.70;;;29.50;74.60;;;;;;5118722;28;20448;-66
2022/08/12 15:35:50;;;;;;;1.23;1.13;;;29.80;73.00;;;;;;5108993;27;20450;-63
2022/08/12 15:38:25;;;;;;;1.00;0.90;;;30.30;72.40;;;;;;5104597;28;20855;-62